sensor_id;sensor_type;location;lat;lon;timestamp;P1;durP1;ratioP1;P2;durP2;ratioP2
11046;SDS011;5576;50.008;10.596;2023-06-24T00:01:27;5.25;;;4.38;;
11046;SDS011;5576;50.008;10.596;2023-06-24T00:03:53;4.32;;;3.90;;
11046;SDS011;5576;50.008;10.596;2023-06-24T00:06:20;5.20;;;4.40;;
11046;SDS011;5576;50.008;10.596;2023-06-24T00:08:47;5.60;;;4.35;;
11046;SDS011;5576;50.008;10.596;2023-06-24T00:11:14;6.60;;;4.43;;
11046;SDS011;5576;50.008;10.596;2023-06-24T00:13:40;4.80;;;4.13;;
11046;SDS011;5576;50.008;10.596;2023-06-24T00:16:06;6.28;;;4.40;;
11046;SDS011;5576;50.008;10.596;2023-06-24T00:18:33;4.75;;;4.35;;
11046;SDS011;5576;50.008;10.596;2023-06-24T00:20:59;6.03;;;4.28;;
11046;SDS011;5576;50.008;10.596;2023-06-24T00:23:27;4.57;;;4.03;;
11046;SDS011;5576;50.008;10.596;2023-06-24T00:25:54;5.93;;;4.10;;
11046;SDS011;5576;50.008;10.596;2023-06-24T00:28:20;6.45;;;4.22;;
11046;SDS011;5576;50.008;10.596;2023-06-24T00:30:47;5.27;;;4.20;;
11046;SDS011;5576;50.008;10.596;2023-06-24T00:33:13;5.15;;;4.10;;
11046;SDS011;5576;50.008;10.596;2023-06-24T00:35:39;7.27;;;4.27;;
11046;SDS011;5576;50.008;10.596;2023-06-24T00:38:06;4.45;;;3.83;;
11046;SDS011;5576;50.008;10.596;2023-06-24T00:40:33;5.90;;;3.90;;
11046;SDS011;5576;50.008;10.596;2023-06-24T00:42:59;4.93;;;4.00;;
11046;SDS011;5576;50.008;10.596;2023-06-24T00:45:27;4.87;;;4.03;;
11046;SDS011;5576;50.008;10.596;2023-06-24T00:47:53;5.07;;;4.00;;
11046;SDS011;5576;50.008;10.596;2023-06-24T00:50:21;4.90;;;3.95;;
11046;SDS011;5576;50.008;10.596;2023-06-24T00:52:47;6.38;;;4.30;;
11046;SDS011;5576;50.008;10.596;2023-06-24T00:55:16;4.53;;;4.10;;
11046;SDS011;5576;50.008;10.596;2023-06-24T00:57:43;4.88;;;4.38;;
11046;SDS011;5576;50.008;10.596;2023-06-24T01:00:10;4.80;;;4.30;;
11046;SDS011;5576;50.008;10.596;2023-06-24T01:02:41;5.28;;;4.18;;
11046;SDS011;5576;50.008;10.596;2023-06-24T01:05:07;6.22;;;4.10;;
11046;SDS011;5576;50.008;10.596;2023-06-24T01:07:34;6.57;;;4.47;;
11046;SDS011;5576;50.008;10.596;2023-06-24T01:10:02;7.45;;;4.10;;
11046;SDS011;5576;50.008;10.596;2023-06-24T01:12:39;6.28;;;4.18;;
11046;SDS011;5576;50.008;10.596;2023-06-24T01:15:07;5.85;;;3.92;;
11046;SDS011;5576;50.008;10.596;2023-06-24T01:17:35;6.40;;;4.10;;
11046;SDS011;5576;50.008;10.596;2023-06-24T01:20:12;7.30;;;4.10;;
11046;SDS011;5576;50.008;10.596;2023-06-24T01:31:44;6.97;;;4.57;;
11046;SDS011;5576;50.008;10.596;2023-06-24T01:36:55;6.85;;;4.38;;
11046;SDS011;5576;50.008;10.596;2023-06-24T01:39:34;4.50;;;3.80;;
11046;SDS011;5576;50.008;10.596;2023-06-24T01:42:08;5.63;;;4.10;;
11046;SDS011;5576;50.008;10.596;2023-06-24T01:44:36;6.10;;;4.35;;
11046;SDS011;5576;50.008;10.596;2023-06-24T01:47:05;4.65;;;4.22;;
11046;SDS011;5576;50.008;10.596;2023-06-24T01:49:33;5.13;;;4.03;;
11046;SDS011;5576;50.008;10.596;2023-06-24T01:52:05;6.05;;;4.40;;
11046;SDS011;5576;50.008;10.596;2023-06-24T01:54:33;4.43;;;4.00;;
11046;SDS011;5576;50.008;10.596;2023-06-24T01:57:01;6.53;;;4.20;;
11046;SDS011;5576;50.008;10.596;2023-06-24T01:59:30;5.78;;;4.30;;
11046;SDS011;5576;50.008;10.596;2023-06-24T02:01:58;5.63;;;4.28;;
11046;SDS011;5576;50.008;10.596;2023-06-24T02:04:26;5.53;;;4.22;;
11046;SDS011;5576;50.008;10.596;2023-06-24T02:06:57;4.63;;;4.10;;
11046;SDS011;5576;50.008;10.596;2023-06-24T02:09:26;5.03;;;4.20;;
11046;SDS011;5576;50.008;10.596;2023-06-24T02:11:54;6.27;;;4.30;;
11046;SDS011;5576;50.008;10.596;2023-06-24T02:14:21;5.22;;;4.25;;
11046;SDS011;5576;50.008;10.596;2023-06-24T02:16:48;5.00;;;4.45;;
11046;SDS011;5576;50.008;10.596;2023-06-24T02:19:21;4.97;;;4.28;;
11046;SDS011;5576;50.008;10.596;2023-06-24T02:21:49;5.32;;;4.22;;
11046;SDS011;5576;50.008;10.596;2023-06-24T02:24:17;4.53;;;4.10;;
11046;SDS011;5576;50.008;10.596;2023-06-24T02:26:44;4.90;;;3.95;;
11046;SDS011;5576;50.008;10.596;2023-06-24T02:29:12;5.85;;;4.28;;
11046;SDS011;5576;50.008;10.596;2023-06-24T02:31:38;4.70;;;3.95;;
11046;SDS011;5576;50.008;10.596;2023-06-24T02:34:04;5.90;;;4.30;;
11046;SDS011;5576;50.008;10.596;2023-06-24T02:36:30;4.50;;;4.07;;
11046;SDS011;5576;50.008;10.596;2023-06-24T02:38:56;4.80;;;4.33;;
11046;SDS011;5576;50.008;10.596;2023-06-24T02:41:22;6.75;;;4.43;;
11046;SDS011;5576;50.008;10.596;2023-06-24T02:43:48;6.93;;;4.05;;
11046;SDS011;5576;50.008;10.596;2023-06-24T02:46:14;6.60;;;4.30;;
11046;SDS011;5576;50.008;10.596;2023-06-24T02:48:41;4.63;;;4.20;;
11046;SDS011;5576;50.008;10.596;2023-06-24T02:51:09;4.75;;;4.28;;
11046;SDS011;5576;50.008;10.596;2023-06-24T02:53:37;5.43;;;4.47;;
11046;SDS011;5576;50.008;10.596;2023-06-24T02:56:04;5.90;;;4.20;;
11046;SDS011;5576;50.008;10.596;2023-06-24T02:58:34;4.50;;;3.97;;
11046;SDS011;5576;50.008;10.596;2023-06-24T03:01:07;7.30;;;4.20;;
11046;SDS011;5576;50.008;10.596;2023-06-24T03:03:52;4.90;;;4.15;;
11046;SDS011;5576;50.008;10.596;2023-06-24T03:06:19;4.93;;;3.80;;
11046;SDS011;5576;50.008;10.596;2023-06-24T03:08:47;6.13;;;4.07;;
11046;SDS011;5576;50.008;10.596;2023-06-24T03:11:15;5.25;;;4.15;;
11046;SDS011;5576;50.008;10.596;2023-06-24T03:13:41;5.07;;;4.57;;
11046;SDS011;5576;50.008;10.596;2023-06-24T03:16:13;5.75;;;4.63;;
11046;SDS011;5576;50.008;10.596;2023-06-24T03:18:49;5.90;;;4.05;;
11046;SDS011;5576;50.008;10.596;2023-06-24T03:21:15;4.90;;;4.30;;
11046;SDS011;5576;50.008;10.596;2023-06-24T03:23:42;5.18;;;4.28;;
11046;SDS011;5576;50.008;10.596;2023-06-24T03:26:11;5.35;;;3.85;;
11046;SDS011;5576;50.008;10.596;2023-06-24T03:28:37;5.50;;;4.03;;
11046;SDS011;5576;50.008;10.596;2023-06-24T03:31:09;4.32;;;3.80;;
11046;SDS011;5576;50.008;10.596;2023-06-24T03:33:36;5.10;;;4.45;;
11046;SDS011;5576;50.008;10.596;2023-06-24T03:36:03;4.68;;;4.18;;
11046;SDS011;5576;50.008;10.596;2023-06-24T03:38:32;5.30;;;4.30;;
11046;SDS011;5576;50.008;10.596;2023-06-24T03:40:58;6.10;;;4.40;;
11046;SDS011;5576;50.008;10.596;2023-06-24T03:43:24;4.75;;;4.22;;
11046;SDS011;5576;50.008;10.596;2023-06-24T03:45:50;4.65;;;4.22;;
11046;SDS011;5576;50.008;10.596;2023-06-24T03:48:16;6.60;;;4.10;;
11046;SDS011;5576;50.008;10.596;2023-06-24T03:50:42;4.90;;;4.40;;
11046;SDS011;5576;50.008;10.596;2023-06-24T03:53:08;6.82;;;4.30;;
11046;SDS011;5576;50.008;10.596;2023-06-24T03:55:34;5.43;;;4.50;;
11046;SDS011;5576;50.008;10.596;2023-06-24T03:58:00;4.80;;;4.20;;
11046;SDS011;5576;50.008;10.596;2023-06-24T04:00:26;5.07;;;4.47;;
11046;SDS011;5576;50.008;10.596;2023-06-24T04:02:52;5.10;;;4.18;;
11046;SDS011;5576;50.008;10.596;2023-06-24T04:05:18;4.65;;;4.20;;
11046;SDS011;5576;50.008;10.596;2023-06-24T04:07:45;4.65;;;4.22;;
11046;SDS011;5576;50.008;10.596;2023-06-24T04:10:13;4.97;;;4.47;;
11046;SDS011;5576;50.008;10.596;2023-06-24T04:12:38;5.57;;;4.47;;
11046;SDS011;5576;50.008;10.596;2023-06-24T04:15:05;5.43;;;4.30;;
11046;SDS011;5576;50.008;10.596;2023-06-24T04:17:32;5.82;;;4.50;;
11046;SDS011;5576;50.008;10.596;2023-06-24T04:19:59;4.93;;;3.90;;
11046;SDS011;5576;50.008;10.596;2023-06-24T04:22:25;6.10;;;4.50;;
11046;SDS011;5576;50.008;10.596;2023-06-24T04:24:55;6.75;;;4.50;;
11046;SDS011;5576;50.008;10.596;2023-06-24T04:27:22;7.05;;;4.20;;
11046;SDS011;5576;50.008;10.596;2023-06-24T04:29:48;5.70;;;4.30;;
11046;SDS011;5576;50.008;10.596;2023-06-24T04:32:14;4.88;;;4.10;;
11046;SDS011;5576;50.008;10.596;2023-06-24T04:34:40;5.87;;;4.20;;
11046;SDS011;5576;50.008;10.596;2023-06-24T04:37:06;6.10;;;4.22;;
11046;SDS011;5576;50.008;10.596;2023-06-24T04:39:32;5.93;;;4.40;;
11046;SDS011;5576;50.008;10.596;2023-06-24T04:41:58;6.40;;;4.30;;
11046;SDS011;5576;50.008;10.596;2023-06-24T04:44:23;5.47;;;4.28;;
11046;SDS011;5576;50.008;10.596;2023-06-24T04:46:49;5.10;;;4.60;;
11046;SDS011;5576;50.008;10.596;2023-06-24T04:49:17;4.97;;;4.53;;
11046;SDS011;5576;50.008;10.596;2023-06-24T04:51:42;4.50;;;4.10;;
11046;SDS011;5576;50.008;10.596;2023-06-24T04:54:08;5.20;;;4.30;;
11046;SDS011;5576;50.008;10.596;2023-06-24T04:56:34;5.33;;;4.43;;
11046;SDS011;5576;50.008;10.596;2023-06-24T04:59:00;6.05;;;4.57;;
11046;SDS011;5576;50.008;10.596;2023-06-24T05:01:26;5.95;;;4.80;;
11046;SDS011;5576;50.008;10.596;2023-06-24T05:03:52;5.27;;;4.67;;
11046;SDS011;5576;50.008;10.596;2023-06-24T05:06:17;5.15;;;4.60;;
11046;SDS011;5576;50.008;10.596;2023-06-24T05:08:43;4.67;;;4.27;;
11046;SDS011;5576;50.008;10.596;2023-06-24T05:11:09;6.97;;;4.95;;
11046;SDS011;5576;50.008;10.596;2023-06-24T05:13:34;6.28;;;5.68;;
11046;SDS011;5576;50.008;10.596;2023-06-24T05:16:00;6.03;;;5.43;;
11046;SDS011;5576;50.008;10.596;2023-06-24T05:18:26;6.50;;;5.18;;
11046;SDS011;5576;50.008;10.596;2023-06-24T05:20:51;6.23;;;5.20;;
11046;SDS011;5576;50.008;10.596;2023-06-24T05:23:17;5.45;;;4.95;;
11046;SDS011;5576;50.008;10.596;2023-06-24T05:25:43;6.30;;;5.40;;
11046;SDS011;5576;50.008;10.596;2023-06-24T05:28:09;6.63;;;5.50;;
11046;SDS011;5576;50.008;10.596;2023-06-24T05:30:34;8.30;;;5.40;;
11046;SDS011;5576;50.008;10.596;2023-06-24T05:33:00;7.75;;;5.57;;
11046;SDS011;5576;50.008;10.596;2023-06-24T05:35:26;6.63;;;5.57;;
11046;SDS011;5576;50.008;10.596;2023-06-24T05:37:52;6.45;;;5.60;;
11046;SDS011;5576;50.008;10.596;2023-06-24T05:40:17;6.17;;;5.57;;
11046;SDS011;5576;50.008;10.596;2023-06-24T05:42:43;6.63;;;5.93;;
11046;SDS011;5576;50.008;10.596;2023-06-24T05:45:09;6.85;;;5.53;;
11046;SDS011;5576;50.008;10.596;2023-06-24T05:47:35;6.57;;;5.88;;
11046;SDS011;5576;50.008;10.596;2023-06-24T05:50:02;6.43;;;5.82;;
11046;SDS011;5576;50.008;10.596;2023-06-24T05:52:28;7.00;;;6.30;;
11046;SDS011;5576;50.008;10.596;2023-06-24T05:54:54;7.30;;;6.60;;
11046;SDS011;5576;50.008;10.596;2023-06-24T05:57:19;7.18;;;6.47;;
11046;SDS011;5576;50.008;10.596;2023-06-24T05:59:45;6.88;;;6.18;;
11046;SDS011;5576;50.008;10.596;2023-06-24T06:02:11;6.50;;;5.90;;
11046;SDS011;5576;50.008;10.596;2023-06-24T06:04:38;6.50;;;5.90;;
11046;SDS011;5576;50.008;10.596;2023-06-24T06:07:04;7.07;;;6.00;;
11046;SDS011;5576;50.008;10.596;2023-06-24T06:09:30;6.80;;;6.10;;
11046;SDS011;5576;50.008;10.596;2023-06-24T06:11:55;6.90;;;6.03;;
11046;SDS011;5576;50.008;10.596;2023-06-24T06:14:21;7.73;;;6.93;;
11046;SDS011;5576;50.008;10.596;2023-06-24T06:16:47;6.88;;;6.28;;
11046;SDS011;5576;50.008;10.596;2023-06-24T06:19:13;7.63;;;6.83;;
11046;SDS011;5576;50.008;10.596;2023-06-24T06:21:38;6.72;;;6.03;;
11046;SDS011;5576;50.008;10.596;2023-06-24T06:24:04;7.13;;;6.43;;
11046;SDS011;5576;50.008;10.596;2023-06-24T06:26:30;7.47;;;6.78;;
11046;SDS011;5576;50.008;10.596;2023-06-24T06:28:56;7.53;;;6.82;;
11046;SDS011;5576;50.008;10.596;2023-06-24T06:31:22;7.20;;;6.32;;
11046;SDS011;5576;50.008;10.596;2023-06-24T06:33:48;7.07;;;6.38;;
11046;SDS011;5576;50.008;10.596;2023-06-24T06:36:13;6.73;;;6.10;;
11046;SDS011;5576;50.008;10.596;2023-06-24T06:38:40;7.22;;;6.53;;
11046;SDS011;5576;50.008;10.596;2023-06-24T06:41:06;6.93;;;5.65;;
11046;SDS011;5576;50.008;10.596;2023-06-24T06:43:32;7.45;;;6.47;;
11046;SDS011;5576;50.008;10.596;2023-06-24T06:45:58;6.93;;;6.15;;
11046;SDS011;5576;50.008;10.596;2023-06-24T06:48:24;8.40;;;7.00;;
11046;SDS011;5576;50.008;10.596;2023-06-24T06:50:50;7.70;;;6.68;;
11046;SDS011;5576;50.008;10.596;2023-06-24T06:53:17;7.60;;;6.80;;
11046;SDS011;5576;50.008;10.596;2023-06-24T06:55:43;8.07;;;7.28;;
11046;SDS011;5576;50.008;10.596;2023-06-24T06:58:09;7.45;;;6.70;;
11046;SDS011;5576;50.008;10.596;2023-06-24T07:00:35;7.70;;;6.90;;
11046;SDS011;5576;50.008;10.596;2023-06-24T07:03:00;7.73;;;6.70;;
11046;SDS011;5576;50.008;10.596;2023-06-24T07:05:27;7.63;;;6.78;;
11046;SDS011;5576;50.008;10.596;2023-06-24T07:07:53;7.83;;;6.90;;
11046;SDS011;5576;50.008;10.596;2023-06-24T07:10:19;8.02;;;6.57;;
11046;SDS011;5576;50.008;10.596;2023-06-24T07:12:45;8.37;;;6.37;;
11046;SDS011;5576;50.008;10.596;2023-06-24T07:15:11;7.00;;;6.30;;
11046;SDS011;5576;50.008;10.596;2023-06-24T07:17:37;7.28;;;6.28;;
11046;SDS011;5576;50.008;10.596;2023-06-24T07:20:02;7.18;;;6.50;;
11046;SDS011;5576;50.008;10.596;2023-06-24T07:22:29;7.37;;;6.67;;
11046;SDS011;5576;50.008;10.596;2023-06-24T07:24:56;6.93;;;6.22;;
11046;SDS011;5576;50.008;10.596;2023-06-24T07:27:22;6.22;;;5.63;;
11046;SDS011;5576;50.008;10.596;2023-06-24T07:29:48;6.10;;;5.50;;
11046;SDS011;5576;50.008;10.596;2023-06-24T07:32:14;7.10;;;6.40;;
11046;SDS011;5576;50.008;10.596;2023-06-24T07:34:39;7.68;;;6.40;;
11046;SDS011;5576;50.008;10.596;2023-06-24T07:37:05;6.87;;;6.00;;
11046;SDS011;5576;50.008;10.596;2023-06-24T07:39:31;6.85;;;6.18;;
11046;SDS011;5576;50.008;10.596;2023-06-24T07:41:56;7.07;;;6.37;;
11046;SDS011;5576;50.008;10.596;2023-06-24T07:44:22;7.00;;;6.30;;
11046;SDS011;5576;50.008;10.596;2023-06-24T07:46:48;7.93;;;7.13;;
11046;SDS011;5576;50.008;10.596;2023-06-24T07:49:16;7.65;;;6.55;;
11046;SDS011;5576;50.008;10.596;2023-06-24T07:51:42;7.38;;;6.38;;
11046;SDS011;5576;50.008;10.596;2023-06-24T07:54:10;6.97;;;5.75;;
11046;SDS011;5576;50.008;10.596;2023-06-24T07:56:36;6.88;;;6.28;;
11046;SDS011;5576;50.008;10.596;2023-06-24T07:59:02;6.70;;;6.10;;
11046;SDS011;5576;50.008;10.596;2023-06-24T08:01:28;7.05;;;6.07;;
11046;SDS011;5576;50.008;10.596;2023-06-24T08:03:53;7.40;;;6.70;;
11046;SDS011;5576;50.008;10.596;2023-06-24T08:06:19;7.13;;;6.43;;
11046;SDS011;5576;50.008;10.596;2023-06-24T08:08:45;6.63;;;5.78;;
11046;SDS011;5576;50.008;10.596;2023-06-24T08:11:11;7.22;;;5.85;;
11046;SDS011;5576;50.008;10.596;2023-06-24T08:13:38;6.60;;;5.88;;
11046;SDS011;5576;50.008;10.596;2023-06-24T08:16:03;7.60;;;6.80;;
11046;SDS011;5576;50.008;10.596;2023-06-24T08:18:29;6.70;;;6.00;;
11046;SDS011;5576;50.008;10.596;2023-06-24T08:20:55;6.15;;;5.55;;
11046;SDS011;5576;50.008;10.596;2023-06-24T08:23:21;6.32;;;5.60;;
11046;SDS011;5576;50.008;10.596;2023-06-24T08:25:47;6.05;;;5.55;;
11046;SDS011;5576;50.008;10.596;2023-06-24T08:28:13;6.22;;;5.63;;
11046;SDS011;5576;50.008;10.596;2023-06-24T08:30:38;5.67;;;5.17;;
11046;SDS011;5576;50.008;10.596;2023-06-24T08:33:04;5.23;;;4.73;;
11046;SDS011;5576;50.008;10.596;2023-06-24T08:35:30;5.20;;;4.70;;
11046;SDS011;5576;50.008;10.596;2023-06-24T08:37:55;5.53;;;5.03;;
11046;SDS011;5576;50.008;10.596;2023-06-24T08:40:21;5.30;;;4.80;;
11046;SDS011;5576;50.008;10.596;2023-06-24T08:42:47;6.20;;;4.97;;
11046;SDS011;5576;50.008;10.596;2023-06-24T08:45:12;4.80;;;4.30;;
11046;SDS011;5576;50.008;10.596;2023-06-24T08:47:38;3.72;;;3.42;;
11046;SDS011;5576;50.008;10.596;2023-06-24T08:50:11;4.82;;;4.10;;
11046;SDS011;5576;50.008;10.596;2023-06-24T08:52:38;4.05;;;3.65;;
11046;SDS011;5576;50.008;10.596;2023-06-24T08:55:10;4.70;;;4.07;;
11046;SDS011;5576;50.008;10.596;2023-06-24T08:57:38;3.90;;;3.42;;
11046;SDS011;5576;50.008;10.596;2023-06-24T09:00:05;4.05;;;3.40;;
11046;SDS011;5576;50.008;10.596;2023-06-24T09:02:35;4.07;;;3.67;;
11046;SDS011;5576;50.008;10.596;2023-06-24T09:05:04;4.20;;;3.58;;
11046;SDS011;5576;50.008;10.596;2023-06-24T09:07:31;3.92;;;3.40;;
11046;SDS011;5576;50.008;10.596;2023-06-24T09:09:57;3.70;;;3.30;;
11046;SDS011;5576;50.008;10.596;2023-06-24T09:12:25;5.35;;;3.90;;
11046;SDS011;5576;50.008;10.596;2023-06-24T09:14:51;3.80;;;3.45;;
11046;SDS011;5576;50.008;10.596;2023-06-24T09:17:17;3.72;;;3.28;;
11046;SDS011;5576;50.008;10.596;2023-06-24T09:19:47;3.80;;;3.35;;
11046;SDS011;5576;50.008;10.596;2023-06-24T09:22:14;4.13;;;3.42;;
11046;SDS011;5576;50.008;10.596;2023-06-24T09:24:44;4.28;;;3.65;;
11046;SDS011;5576;50.008;10.596;2023-06-24T09:27:12;3.60;;;3.08;;
11046;SDS011;5576;50.008;10.596;2023-06-24T09:29:40;4.35;;;3.53;;
11046;SDS011;5576;50.008;10.596;2023-06-24T09:32:07;3.83;;;3.40;;
11046;SDS011;5576;50.008;10.596;2023-06-24T09:34:33;4.03;;;3.35;;
11046;SDS011;5576;50.008;10.596;2023-06-24T09:36:59;5.70;;;3.77;;
11046;SDS011;5576;50.008;10.596;2023-06-24T09:39:26;3.90;;;3.50;;
11046;SDS011;5576;50.008;10.596;2023-06-24T09:41:55;4.35;;;3.40;;
11046;SDS011;5576;50.008;10.596;2023-06-24T09:44:22;3.50;;;3.10;;
11046;SDS011;5576;50.008;10.596;2023-06-24T09:46:48;3.60;;;3.10;;
11046;SDS011;5576;50.008;10.596;2023-06-24T09:49:14;3.20;;;2.90;;
11046;SDS011;5576;50.008;10.596;2023-06-24T09:51:42;3.58;;;3.28;;
11046;SDS011;5576;50.008;10.596;2023-06-24T09:54:11;3.58;;;3.10;;
11046;SDS011;5576;50.008;10.596;2023-06-24T09:56:42;3.80;;;2.97;;
11046;SDS011;5576;50.008;10.596;2023-06-24T09:59:11;3.35;;;2.90;;
11046;SDS011;5576;50.008;10.596;2023-06-24T10:01:39;3.15;;;2.85;;
11046;SDS011;5576;50.008;10.596;2023-06-24T10:04:06;3.85;;;3.10;;
11046;SDS011;5576;50.008;10.596;2023-06-24T10:06:33;2.80;;;2.60;;
11046;SDS011;5576;50.008;10.596;2023-06-24T10:09:00;4.18;;;3.22;;
11046;SDS011;5576;50.008;10.596;2023-06-24T10:11:26;4.07;;;3.20;;
11046;SDS011;5576;50.008;10.596;2023-06-24T10:13:52;3.80;;;3.40;;
11046;SDS011;5576;50.008;10.596;2023-06-24T10:18:45;5.28;;;3.40;;
11046;SDS011;5576;50.008;10.596;2023-06-24T10:21:11;4.03;;;3.15;;
11046;SDS011;5576;50.008;10.596;2023-06-24T10:23:40;5.55;;;3.10;;
11046;SDS011;5576;50.008;10.596;2023-06-24T10:26:36;3.60;;;3.10;;
11046;SDS011;5576;50.008;10.596;2023-06-24T10:44:50;3.38;;;2.90;;
11046;SDS011;5576;50.008;10.596;2023-06-24T10:47:17;3.27;;;2.90;;
11046;SDS011;5576;50.008;10.596;2023-06-24T10:49:45;3.10;;;2.80;;
11046;SDS011;5576;50.008;10.596;2023-06-24T10:52:11;3.10;;;2.80;;
11046;SDS011;5576;50.008;10.596;2023-06-24T10:54:38;4.00;;;3.10;;
11046;SDS011;5576;50.008;10.596;2023-06-24T10:57:05;3.50;;;2.90;;
11046;SDS011;5576;50.008;10.596;2023-06-24T10:59:34;3.03;;;2.72;;
11046;SDS011;5576;50.008;10.596;2023-06-24T11:02:00;2.88;;;2.55;;
11046;SDS011;5576;50.008;10.596;2023-06-24T11:04:26;3.55;;;2.97;;
11046;SDS011;5576;50.008;10.596;2023-06-24T11:07:00;3.70;;;3.00;;
11046;SDS011;5576;50.008;10.596;2023-06-24T11:09:27;3.20;;;2.90;;
11046;SDS011;5576;50.008;10.596;2023-06-24T11:11:53;3.10;;;2.83;;
11046;SDS011;5576;50.008;10.596;2023-06-24T11:14:19;3.17;;;2.90;;
11046;SDS011;5576;50.008;10.596;2023-06-24T11:16:45;3.50;;;3.20;;
11046;SDS011;5576;50.008;10.596;2023-06-24T11:19:11;3.10;;;2.80;;
11046;SDS011;5576;50.008;10.596;2023-06-24T11:21:37;3.17;;;2.85;;
11046;SDS011;5576;50.008;10.596;2023-06-24T11:24:03;3.30;;;3.00;;
11046;SDS011;5576;50.008;10.596;2023-06-24T11:26:29;4.27;;;3.03;;
11046;SDS011;5576;50.008;10.596;2023-06-24T11:28:55;3.10;;;2.78;;
11046;SDS011;5576;50.008;10.596;2023-06-24T11:31:28;4.20;;;2.90;;
11046;SDS011;5576;50.008;10.596;2023-06-24T11:33:58;3.85;;;3.30;;
11046;SDS011;5576;50.008;10.596;2023-06-24T11:36:23;3.10;;;2.80;;
11046;SDS011;5576;50.008;10.596;2023-06-24T11:38:49;4.53;;;3.10;;
11046;SDS011;5576;50.008;10.596;2023-06-24T11:41:15;3.03;;;2.72;;
11046;SDS011;5576;50.008;10.596;2023-06-24T11:43:45;3.08;;;2.88;;
11046;SDS011;5576;50.008;10.596;2023-06-24T11:46:20;3.17;;;2.90;;
11046;SDS011;5576;50.008;10.596;2023-06-24T11:48:51;2.97;;;2.70;;
11046;SDS011;5576;50.008;10.596;2023-06-24T11:51:18;2.60;;;2.40;;
11046;SDS011;5576;50.008;10.596;2023-06-24T11:53:44;2.83;;;2.50;;
11046;SDS011;5576;50.008;10.596;2023-06-24T11:56:11;3.17;;;2.67;;
11046;SDS011;5576;50.008;10.596;2023-06-24T11:58:37;2.92;;;2.47;;
11046;SDS011;5576;50.008;10.596;2023-06-24T12:01:03;3.15;;;2.70;;
11046;SDS011;5576;50.008;10.596;2023-06-24T12:03:32;2.95;;;2.60;;
11046;SDS011;5576;50.008;10.596;2023-06-24T12:05:59;3.05;;;2.75;;
11046;SDS011;5576;50.008;10.596;2023-06-24T12:08:25;4.43;;;2.60;;
11046;SDS011;5576;50.008;10.596;2023-06-24T12:10:51;2.78;;;2.58;;
11046;SDS011;5576;50.008;10.596;2023-06-24T12:13:17;2.63;;;2.42;;
11046;SDS011;5576;50.008;10.596;2023-06-24T12:15:43;2.95;;;2.65;;
11046;SDS011;5576;50.008;10.596;2023-06-24T12:18:09;2.97;;;2.65;;
11046;SDS011;5576;50.008;10.596;2023-06-24T12:20:36;4.32;;;2.60;;
11046;SDS011;5576;50.008;10.596;2023-06-24T12:23:03;2.88;;;2.63;;
11046;SDS011;5576;50.008;10.596;2023-06-24T12:25:29;2.83;;;2.60;;
11046;SDS011;5576;50.008;10.596;2023-06-24T12:27:54;3.10;;;2.60;;
11046;SDS011;5576;50.008;10.596;2023-06-24T12:30:20;2.83;;;2.58;;
11046;SDS011;5576;50.008;10.596;2023-06-24T12:32:49;2.78;;;2.50;;
11046;SDS011;5576;50.008;10.596;2023-06-24T12:35:15;2.87;;;2.50;;
11046;SDS011;5576;50.008;10.596;2023-06-24T12:37:41;3.10;;;2.75;;
11046;SDS011;5576;50.008;10.596;2023-06-24T12:40:06;2.77;;;2.57;;
11046;SDS011;5576;50.008;10.596;2023-06-24T12:42:33;3.28;;;2.67;;
11046;SDS011;5576;50.008;10.596;2023-06-24T12:44:59;3.20;;;2.55;;
11046;SDS011;5576;50.008;10.596;2023-06-24T12:47:25;2.65;;;2.40;;
11046;SDS011;5576;50.008;10.596;2023-06-24T12:49:51;2.90;;;2.67;;
11046;SDS011;5576;50.008;10.596;2023-06-24T12:52:18;2.60;;;2.40;;
11046;SDS011;5576;50.008;10.596;2023-06-24T12:54:44;2.83;;;2.63;;
11046;SDS011;5576;50.008;10.596;2023-06-24T12:57:09;3.43;;;2.70;;
11046;SDS011;5576;50.008;10.596;2023-06-24T12:59:35;3.40;;;2.70;;
11046;SDS011;5576;50.008;10.596;2023-06-24T13:02:02;3.83;;;2.60;;
11046;SDS011;5576;50.008;10.596;2023-06-24T13:04:28;2.97;;;2.60;;
11046;SDS011;5576;50.008;10.596;2023-06-24T13:06:54;2.58;;;2.38;;
11046;SDS011;5576;50.008;10.596;2023-06-24T13:09:20;3.00;;;2.63;;
11046;SDS011;5576;50.008;10.596;2023-06-24T13:11:46;2.95;;;2.65;;
11046;SDS011;5576;50.008;10.596;2023-06-24T13:14:12;2.75;;;2.40;;
11046;SDS011;5576;50.008;10.596;2023-06-24T13:16:38;2.92;;;2.60;;
11046;SDS011;5576;50.008;10.596;2023-06-24T13:19:05;2.90;;;2.70;;
11046;SDS011;5576;50.008;10.596;2023-06-24T13:21:30;3.20;;;2.57;;
11046;SDS011;5576;50.008;10.596;2023-06-24T13:23:56;2.60;;;2.40;;
11046;SDS011;5576;50.008;10.596;2023-06-24T13:26:22;2.95;;;2.58;;
11046;SDS011;5576;50.008;10.596;2023-06-24T13:28:50;3.27;;;2.60;;
11046;SDS011;5576;50.008;10.596;2023-06-24T13:31:17;2.88;;;2.67;;
11046;SDS011;5576;50.008;10.596;2023-06-24T13:33:43;2.90;;;2.42;;
11046;SDS011;5576;50.008;10.596;2023-06-24T13:36:11;2.73;;;2.50;;
11046;SDS011;5576;50.008;10.596;2023-06-24T13:38:52;2.80;;;2.60;;
11046;SDS011;5576;50.008;10.596;2023-06-24T13:44:53;2.90;;;2.60;;
11046;SDS011;5576;50.008;10.596;2023-06-24T13:47:19;3.15;;;2.70;;
11046;SDS011;5576;50.008;10.596;2023-06-24T13:49:45;3.55;;;2.75;;
11046;SDS011;5576;50.008;10.596;2023-06-24T13:52:11;3.78;;;2.80;;
11046;SDS011;5576;50.008;10.596;2023-06-24T13:54:37;4.15;;;2.90;;
11046;SDS011;5576;50.008;10.596;2023-06-24T13:57:02;3.13;;;2.50;;
11046;SDS011;5576;50.008;10.596;2023-06-24T13:59:28;2.97;;;2.60;;
11046;SDS011;5576;50.008;10.596;2023-06-24T14:01:54;3.00;;;2.53;;
11046;SDS011;5576;50.008;10.596;2023-06-24T14:04:20;2.90;;;2.43;;
11046;SDS011;5576;50.008;10.596;2023-06-24T14:06:45;2.90;;;2.47;;
11046;SDS011;5576;50.008;10.596;2023-06-24T14:09:12;3.97;;;2.58;;
11046;SDS011;5576;50.008;10.596;2023-06-24T14:11:38;3.10;;;2.80;;
11046;SDS011;5576;50.008;10.596;2023-06-24T14:14:04;2.97;;;2.70;;
11046;SDS011;5576;50.008;10.596;2023-06-24T14:16:30;4.10;;;2.90;;
11046;SDS011;5576;50.008;10.596;2023-06-24T14:18:55;3.20;;;2.60;;
11046;SDS011;5576;50.008;10.596;2023-06-24T14:21:21;3.00;;;2.70;;
11046;SDS011;5576;50.008;10.596;2023-06-24T14:23:47;3.13;;;2.50;;
11046;SDS011;5576;50.008;10.596;2023-06-24T14:26:13;3.00;;;2.70;;
11046;SDS011;5576;50.008;10.596;2023-06-24T14:28:39;3.63;;;2.70;;
11046;SDS011;5576;50.008;10.596;2023-06-24T14:31:08;3.05;;;2.60;;
11046;SDS011;5576;50.008;10.596;2023-06-24T14:33:33;3.08;;;2.50;;
11046;SDS011;5576;50.008;10.596;2023-06-24T14:35:59;2.67;;;2.47;;
11046;SDS011;5576;50.008;10.596;2023-06-24T14:38:25;3.22;;;2.72;;
11046;SDS011;5576;50.008;10.596;2023-06-24T14:40:51;3.00;;;2.70;;
11046;SDS011;5576;50.008;10.596;2023-06-24T14:43:17;2.85;;;2.55;;
11046;SDS011;5576;50.008;10.596;2023-06-24T14:45:44;3.08;;;2.78;;
11046;SDS011;5576;50.008;10.596;2023-06-24T14:48:09;2.95;;;2.70;;
11046;SDS011;5576;50.008;10.596;2023-06-24T14:50:35;2.70;;;2.50;;
11046;SDS011;5576;50.008;10.596;2023-06-24T14:53:01;3.03;;;2.70;;
11046;SDS011;5576;50.008;10.596;2023-06-24T14:55:28;2.95;;;2.65;;
11046;SDS011;5576;50.008;10.596;2023-06-24T14:57:54;2.75;;;2.55;;
11046;SDS011;5576;50.008;10.596;2023-06-24T15:00:19;3.10;;;2.80;;
11046;SDS011;5576;50.008;10.596;2023-06-24T15:02:45;3.40;;;2.55;;
11046;SDS011;5576;50.008;10.596;2023-06-24T15:05:11;2.70;;;2.50;;
11046;SDS011;5576;50.008;10.596;2023-06-24T15:07:37;2.95;;;2.67;;
11046;SDS011;5576;50.008;10.596;2023-06-24T15:10:03;3.13;;;2.67;;
11046;SDS011;5576;50.008;10.596;2023-06-24T15:12:30;2.72;;;2.47;;
11046;SDS011;5576;50.008;10.596;2023-06-24T15:14:56;3.43;;;2.77;;
11046;SDS011;5576;50.008;10.596;2023-06-24T15:17:22;3.00;;;2.70;;
11046;SDS011;5576;50.008;10.596;2023-06-24T15:19:48;3.00;;;2.70;;